Aviation Digital Data Service (ADDS)

Output produced by METARs form (0512 UTC 22 July 2017)
found at http://www.aviationweather.gov/adds/metars/
 
KSEG 220453Z AUTO 00000KT 5SM BR CLR 23/23 A2993 RMK AO2 SLP132 T02280228 403110194
KSEG 220353Z AUTO 33003KT 6SM BR CLR 23/23 A2992 RMK AO2 SLP128 T02280228
KSEG 220253Z AUTO 00000KT 8SM CLR 23/23 A2992 RMK AO2 SLP128 T02330233 51013
KSEG 220153Z AUTO 00000KT 9SM CLR 24/23 A2992 RMK AO2 SLP126 T02390233
KSEG 220053Z AUTO 00000KT 10SM CLR 25/24 A2989 RMK AO2 SLP118 T02500239
KSEG 212353Z AUTO 00000KT 10SM CLR 27/24 A2988 RMK AO2 SLP114 T02720244 10311 20272 56005
KSEG 212253Z AUTO 21005KT 10SM CLR 29/23 A2989 RMK AO2 SLP116 T02940233
KSEG 212153Z AUTO VRB05KT 10SM CLR 31/23 A2988 RMK AO2 SLP116 T03060228
KSEG 212053Z AUTO 23006KT 10SM CLR 31/23 A2989 RMK AO2 SLP119 T03060228 58014
KSEG 211953Z AUTO 22007KT 170V260 10SM FEW044 SCT060 31/23 A2992 RMK AO2 SLP127 T03110233
KSEG 211853Z AUTO 18004KT 10SM FEW040 30/24 A2992 RMK AO2 SLP128 T03000239
KSEG 211753Z AUTO VRB05KT 10SM SCT036 SCT043 BKN060 30/23 A2994 RMK AO2 SLP133 T03000233 10300 20233 58014
KSEG 211653Z AUTO VRB03KT 10SM BKN033 29/22 A2995 RMK AO2 SLP139 T02890222
KSEG 211553Z AUTO 16003KT 10SM BKN047 BKN060 BKN080 28/22 A2996 RMK AO2 SLP143 T02780222
KSEG 211453Z AUTO 00000KT 10SM BKN045 28/22 A2998 RMK AO2 SLP147 T02830222 58001
KSEG 211353Z AUTO VRB03KT 9SM OVC041 27/23 A2998 RMK AO2 SLP148 T02670228
KSEG 211253Z AUTO 00000KT 9SM FEW041 26/23 A2999 RMK AO2 SLP150 T02560228
KSEG 211153Z AUTO 00000KT 6SM BR CLR 23/22 A2998 RMK AO2 SLP148 T02330222 10233 20194 53015
KSEG 211053Z AUTO 00000KT 4SM BR CLR 21/21 A2996 RMK AO2 SLP142 T02110211
KSEG 211012Z AUTO 00000KT 3SM BR CLR 20/20 A2995 RMK AO2 T02000200
KSEG 211002Z AUTO 00000KT 2SM BR CLR 20/20 A2995 RMK AO2 T02000200
KSEG 210953Z AUTO 00000KT 4SM BR CLR 19/19 A2995 RMK AO2 SLP137 T01940194
KSEG 210853Z AUTO 00000KT 3SM BR CLR 21/20 A2994 RMK AO2 SLP132 T02060200 55003
KSEG 210753Z AUTO 00000KT 5SM BR CLR 21/21 A2993 RMK AO2 SLP131 T02060206
KSEG 210653Z AUTO 00000KT 8SM FEW100 21/21 A2994 RMK AO2 SLP132 T02110211
KSEG 210553Z AUTO 00000KT 9SM FEW100 22/22 A2994 RMK AO2 SLP135 T02220217 10283 20217 53003
KSEG 210453Z AUTO 34003KT 10SM CLR 23/22 A2994 RMK AO2 SLP134 T02330222 403280200
KSEG 210353Z AUTO 00000KT 10SM FEW120 23/22 A2993 RMK AO2 SLP130 T02330222
KSEG 210253Z AUTO 34003KT 10SM BKN120 24/22 A2993 RMK AO2 SLP132 T02390217 53010
KSEG 210153Z AUTO 30004KT 10SM CLR 24/22 A2992 RMK AO2 SLP129 T02440222
KSEG 210053Z AUTO 33003KT 8SM CLR 26/23 A2992 RMK AO2 SLP126 T02610233
KSEG 202353Z AUTO 22003KT 10SM CLR 28/22 A2990 RMK AO2 SLP123 T02830222 10328 20283 53002
KSEG 202253Z AUTO VRB03KT 10SM CLR 31/22 A2990 RMK AO2 SLP120 T03060217
KSEG 202153Z AUTO 10SM CLR 32/22 A2989 RMK AO2 SLP118 T03170217
KSEG 202053Z AUTO VRB04KT 9SM CLR 32/23 A2990 RMK AO2 LTG DSNT NE SLP120 T03220233 57020
KSEG 201953Z AUTO VRB05KT 9SM SCT055 32/22 A2992 RMK AO2 SLP126 T03170222
KSEG 201853Z AUTO VRB04KT 10SM FEW050 32/22 A2994 RMK AO2 SLP134 T03170222
KSEG 201753Z AUTO 22005KT 10SM CLR 31/22 A2996 RMK AO2 SLP140 T03110222 10317 20211 58024